createdAt,value
2023-02-14T00:04:19.297Z,101849.09
2023-02-14T00:09:21.132Z,101847.09
2023-02-14T00:14:41.302Z,101851.03
2023-02-14T00:19:42.919Z,101853.25
2023-02-14T00:24:44.697Z,101852.00
2023-02-14T00:29:46.477Z,101852.31
2023-02-14T00:34:48.093Z,101843.72
2023-02-14T00:39:50.128Z,101856.50
2023-02-14T00:44:51.739Z,101852.47
2023-02-14T00:49:54.952Z,101856.50
2023-02-14T00:54:56.764Z,101865.16
2023-02-14T00:59:59.387Z,101864.38
2023-02-14T01:05:01.882Z,101856.22
2023-02-14T01:10:03.900Z,101854.97
2023-02-14T01:15:05.801Z,101843.09
2023-02-14T01:20:08.156Z,101844.63
2023-02-14T01:25:10.130Z,101839.53
2023-02-14T01:30:12.623Z,101839.03
2023-02-14T01:35:15.872Z,101830.44
2023-02-14T01:40:17.547Z,101834.63
2023-02-14T01:45:22.303Z,101823.78
2023-02-14T01:50:28.909Z,101828.09
2023-02-14T01:55:33.849Z,101823.69
2023-02-14T02:00:56.088Z,101821.56
2023-02-14T02:06:13.886Z,101828.31
2023-02-14T02:11:15.544Z,101821.28
2023-02-14T02:16:35.455Z,101817.06
2023-02-14T02:22:21.482Z,101818.91
2023-02-14T02:27:35.399Z,101809.69
2023-02-14T02:32:58.594Z,101802.47
2023-02-14T02:38:45.065Z,101799.91
2023-02-14T02:43:53.799Z,101799.22
2023-02-14T02:48:55.316Z,101798.34
2023-02-14T02:54:09.775Z,101794.69
2023-02-14T02:59:23.062Z,101793.75
2023-02-14T03:04:53.224Z,101793.94
2023-02-14T03:09:58.544Z,101802.41
2023-02-14T03:15:36.256Z,101791.03
2023-02-14T03:20:55.067Z,101787.72
2023-02-14T03:26:08.930Z,101790.97
2023-02-14T03:31:28.779Z,101789.72
2023-02-14T03:36:56.573Z,101788.00
2023-02-14T03:42:16.416Z,101790.97
2023-02-14T03:47:23.265Z,101785.59
2023-02-14T03:52:27.040Z,101785.00
2023-02-14T03:57:47.741Z,101778.47
2023-02-14T04:02:58.312Z,101778.59
2023-02-14T04:07:59.928Z,101787.69
2023-02-14T04:13:01.541Z,101785.28
2023-02-14T04:18:21.837Z,101789.53
2023-02-14T04:23:23.708Z,101778.38
2023-02-14T04:28:25.319Z,101768.59
2023-02-14T04:33:26.924Z,101767.06
2023-02-14T04:38:28.590Z,101779.25
2023-02-14T04:43:30.562Z,101780.88
2023-02-14T04:48:32.365Z,101773.00
2023-02-14T04:53:34.022Z,101767.06
2023-02-14T04:58:36.815Z,101769.16
2023-02-14T05:03:38.477Z,101765.50
2023-02-14T05:08:40.117Z,101777.38
2023-02-14T05:13:41.762Z,101772.97
2023-02-14T05:18:43.570Z,101760.69
2023-02-14T05:23:45.385Z,101761.22
2023-02-14T05:28:47.152Z,101771.44
2023-02-14T05:33:49.133Z,101769.44
2023-02-14T05:38:50.749Z,101766.84
2023-02-14T05:43:52.456Z,101768.38
2023-02-14T05:48:54.253Z,101768.63
2023-02-14T05:53:57.820Z,101776.38
2023-02-14T05:58:59.477Z,101780.50
2023-02-14T06:04:01.245Z,101785.59
2023-02-14T06:09:03.001Z,101793.25
2023-02-14T06:14:04.647Z,101795.66
2023-02-14T06:19:06.277Z,101789.16
2023-02-14T06:24:08.449Z,101799.75
2023-02-14T06:29:10.192Z,101801.94
2023-02-14T06:34:12.247Z,101802.66
2023-02-14T06:39:13.909Z,101811.22
2023-02-14T06:44:15.635Z,101797.91
2023-02-14T06:49:18.369Z,101799.06
2023-02-14T06:54:20.010Z,101797.53
2023-02-14T06:59:22.133Z,101799.06
2023-02-14T07:04:23.842Z,101803.59
2023-02-14T07:09:25.508Z,101801.81
2023-02-14T07:14:27.255Z,101802.38
2023-02-14T07:19:28.946Z,101804.16
2023-02-14T07:24:30.563Z,101803.41
2023-02-14T07:29:32.159Z,101815.03
2023-02-14T07:34:33.814Z,101814.31
2023-02-14T07:39:35.696Z,101807.44
2023-02-14T07:44:40.728Z,101819.41
2023-02-14T07:49:42.680Z,101833.09
2023-02-14T07:54:44.414Z,101821.19
2023-02-14T07:59:46.243Z,101829.16
2023-02-14T08:04:47.828Z,101830.03
2023-02-14T08:09:49.622Z,101828.00
2023-02-14T08:14:51.233Z,101830.78
2023-02-14T08:19:52.989Z,101832.94
2023-02-14T08:24:54.713Z,101841.25
2023-02-14T08:29:56.570Z,101843.88
2023-02-14T08:34:58.242Z,101845.59
2023-02-14T08:39:59.904Z,101844.63
2023-02-14T08:45:01.582Z,101844.72
2023-02-14T08:50:06.104Z,101847.94
2023-02-14T08:55:07.936Z,101839.59
2023-02-14T09:00:11.698Z,101848.91
2023-02-14T09:05:13.464Z,101844.94
2023-02-14T09:10:15.517Z,101834.81
2023-02-14T09:15:17.479Z,101837.75
2023-02-14T09:20:19.471Z,101853.50
2023-02-14T09:25:21.335Z,101843.50
2023-02-14T09:30:23.228Z,101856.34
2023-02-14T09:35:24.885Z,101854.50
2023-02-14T09:40:26.627Z,101863.53
2023-02-14T09:45:30.856Z,101862.78
2023-02-14T09:50:42.280Z,101858.56
2023-02-14T09:56:09.041Z,101853.50
2023-02-14T10:01:19.315Z,101857.97
2023-02-14T10:06:42.662Z,101853.03
2023-02-14T10:11:46.351Z,101850.72
2023-02-14T10:17:20.786Z,101843.19
2023-02-14T10:22:31.022Z,101846.91
2023-02-14T10:27:46.347Z,101842.53
2023-02-14T10:33:02.329Z,101839.78
2023-02-14T10:38:03.891Z,101840.03
2023-02-14T10:43:16.291Z,101839.25
2023-02-14T10:48:23.861Z,101845.38
2023-02-14T10:53:55.963Z,101830.78
2023-02-14T10:59:02.773Z,101813.34
2023-02-14T11:04:08.576Z,101809.06
2023-02-14T11:09:12.288Z,101812.84
2023-02-14T11:14:22.101Z,101820.72
2023-02-14T11:19:29.089Z,101819.56
2023-02-14T11:24:30.853Z,101811.91
2023-02-14T11:29:43.682Z,101798.69
2023-02-14T11:34:52.807Z,101802.16
2023-02-14T11:39:58.033Z,101805.97
2023-02-14T11:44:59.783Z,101809.38
2023-02-14T11:50:24.759Z,101792.88
2023-02-14T11:55:33.715Z,101785.34
2023-02-14T12:00:35.532Z,101783.75
2023-02-14T12:05:46.955Z,101781.72
2023-02-14T12:11:01.740Z,101761.22
2023-02-14T12:16:03.936Z,101750.69
2023-02-14T12:21:21.526Z,101765.00
2023-02-14T12:26:54.472Z,101760.38
2023-02-14T12:32:02.150Z,101757.88
2023-02-14T12:37:28.107Z,101747.41
2023-02-14T12:42:57.509Z,101742.75
2023-02-14T12:48:22.895Z,101736.25
2023-02-14T12:53:49.116Z,101744.91
2023-02-14T12:59:01.657Z,101743.34
2023-02-14T13:04:15.426Z,101730.50
2023-02-14T13:09:27.507Z,101730.63
2023-02-14T13:14:46.899Z,101721.78
2023-02-14T13:20:03.766Z,101723.28
2023-02-14T13:25:21.751Z,101716.09
2023-02-14T13:30:32.305Z,101702.06
2023-02-14T13:35:34.836Z,101706.44
2023-02-14T13:40:37.667Z,101707.31
2023-02-14T13:45:52.098Z,101714.38
2023-02-14T13:50:53.761Z,101700.25
2023-02-14T13:55:55.982Z,101687.22
2023-02-14T14:00:57.797Z,101690.38
2023-02-14T14:06:11.156Z,101700.75
2023-02-14T14:11:21.896Z,101702.47
2023-02-14T14:21:27.927Z,101672.88
2023-02-14T14:27:03.986Z,101668.81
2023-02-14T14:32:21.647Z,101663.31
2023-02-14T14:37:26.739Z,101673.25
2023-02-14T14:42:40.742Z,101660.13
2023-02-14T14:47:45.333Z,101645.63
2023-02-14T14:52:59.376Z,101656.44
2023-02-14T14:58:04.656Z,101655.44
2023-02-14T15:03:14.856Z,101657.38
2023-02-14T15:08:35.659Z,101645.63
2023-02-14T15:13:51.060Z,101643.75
2023-02-14T15:18:57.649Z,101644.31
2023-02-14T15:24:02.023Z,101646.19
2023-02-14T15:29:05.925Z,101649.19
2023-02-14T15:34:08.159Z,101661.69
2023-02-14T15:39:16.518Z,101649.84
2023-02-14T15:44:20.564Z,101664.00
2023-02-14T15:49:26.157Z,101675.75
2023-02-14T15:54:41.736Z,101673.66
2023-02-14T15:59:43.758Z,101673.13
2023-02-14T16:04:45.785Z,101674.53
2023-02-14T16:09:48.299Z,101680.41
2023-02-14T16:15:15.093Z,101678.09
2023-02-14T16:20:22.744Z,101683.97
2023-02-14T16:25:24.621Z,101683.31
2023-02-14T16:30:26.614Z,101684.81
2023-02-14T16:35:29.571Z,101700.56
2023-02-14T16:40:31.325Z,101692.31
2023-02-14T16:45:32.997Z,101685.53
2023-02-14T16:50:36.792Z,101697.94
2023-02-14T16:55:40.459Z,101691.78
2023-02-14T17:00:42.285Z,101695.97
2023-02-14T17:05:44.185Z,101704.34
2023-02-14T17:10:48.662Z,101710.84
2023-02-14T17:15:50.939Z,101699.34
2023-02-14T17:20:52.716Z,101707.00
2023-02-14T17:25:54.512Z,101703.56
2023-02-14T17:30:57.805Z,101705.97
2023-02-14T17:36:11.508Z,101698.47
2023-02-14T17:41:22.276Z,101701.63
2023-02-14T17:46:23.925Z,101705.78
2023-02-14T17:51:25.560Z,101710.19
2023-02-14T17:56:27.178Z,101709.78
2023-02-14T18:01:31.439Z,101716.69
2023-02-14T18:06:33.565Z,101723.88
2023-02-14T18:11:35.429Z,101719.78
2023-02-14T18:16:39.124Z,101715.31
2023-02-14T18:21:40.816Z,101712.91
2023-02-14T18:26:43.010Z,101714.69
2023-02-14T18:31:45.168Z,101726.06
2023-02-14T18:36:48.017Z,101713.91
2023-02-14T18:41:49.669Z,101709.97
2023-02-14T18:46:51.247Z,101702.59
2023-02-14T18:51:53.535Z,101702.69
2023-02-14T18:56:55.136Z,101700.47
2023-02-14T19:01:57.111Z,101699.91
2023-02-14T19:06:59.623Z,101699.53
2023-02-14T19:12:01.313Z,101703.84
2023-02-14T19:17:04.411Z,101703.00
2023-02-14T19:22:06.129Z,101712.28
2023-02-14T19:27:07.921Z,101707.00
2023-02-14T19:32:10.338Z,101710.06
2023-02-14T19:37:13.098Z,101703.56
2023-02-14T19:42:15.012Z,101713.69
2023-02-14T19:47:29.018Z,101708.91
2023-02-14T19:52:38.777Z,101709.41
2023-02-14T19:57:41.120Z,101709.59
2023-02-14T20:02:47.977Z,101704.78
2023-02-14T20:07:51.907Z,101706.13
2023-02-14T20:12:53.648Z,101699.78
2023-02-14T20:17:55.619Z,101701.81
2023-02-14T20:22:57.408Z,101692.25
2023-02-14T20:27:58.981Z,101690.78
2023-02-14T20:33:00.699Z,101690.41
2023-02-14T20:38:02.903Z,101695.38
2023-02-14T20:43:04.594Z,101690.50
2023-02-14T20:48:08.061Z,101688.22
2023-02-14T20:53:09.686Z,101689.75
2023-02-14T20:58:11.636Z,101688.47
2023-02-14T21:03:13.259Z,101690.41
2023-02-14T21:08:15.328Z,101686.56
2023-02-14T21:13:17.147Z,101682.41
2023-02-14T21:18:19.092Z,101683.19
2023-02-14T21:23:20.692Z,101677.66
2023-02-14T21:28:22.374Z,101678.78
2023-02-14T21:33:25.346Z,101666.69
2023-02-14T21:38:27.928Z,101675.69
2023-02-14T21:43:29.547Z,101665.91
2023-02-14T21:48:50.242Z,101655.69
2023-02-14T21:53:51.932Z,101662.31
2023-02-14T21:58:55.447Z,101650.13
2023-02-14T22:03:58.588Z,101643.09
2023-02-14T22:09:00.633Z,101647.06
2023-02-14T22:14:02.660Z,101652.72
2023-02-14T22:19:05.423Z,101645.78
2023-02-14T22:24:07.326Z,101640.06
2023-02-14T22:29:12.238Z,101640.81
2023-02-14T22:34:17.656Z,101649.06
2023-02-14T22:39:19.452Z,101638.06
2023-02-14T22:44:21.054Z,101647.41
2023-02-14T22:49:22.646Z,101644.16
2023-02-14T22:54:24.254Z,101649.78
2023-02-14T22:59:28.279Z,101639.66
2023-02-14T23:04:30.100Z,101642.72
2023-02-14T23:09:31.882Z,101633.63
2023-02-14T23:14:52.119Z,101643.16
2023-02-14T23:20:12.378Z,101638.28
2023-02-14T23:25:13.989Z,101638.84
2023-02-14T23:30:18.222Z,101636.25
2023-02-14T23:35:19.867Z,101634.53
2023-02-14T23:40:21.695Z,101624.69
2023-02-14T23:45:35.676Z,101629.91
2023-02-14T23:50:37.402Z,101623.94
2023-02-14T23:55:39.450Z,101626.34
